Time;durP1;ratioP1;P1;durP2;ratioP2;P2;SDS_P1;SDS_P2;PMS_P1;PMS_P2;Temp;Humidity;BMP_temperature;BMP_pressure;BME280_temperature;BME280_humidity;BME280_pressure;Samples;Min_cycle;Max_cycle;Signal;HPM_P1;HPM_P2
2021/04/22 00:01:12;;;;;;;12.52;11.23;;;11.90;99.90;;;;;;5074478;28;20293;-42
2021/04/22 00:03:39;;;;;;;13.75;12.35;;;11.80;99.90;;;;;;5074343;28;20630;-44
2021/04/22 00:06:06;;;;;;;13.35;11.95;;;11.80;99.90;;;;;;5074287;28;20203;-43
2021/04/22 00:08:33;;;;;;;12.70;11.40;;;11.70;99.90;;;;;;5074430;28;20247;-42
2021/04/22 00:11:00;;;;;;;13.27;11.98;;;11.70;99.90;;;;;;5074490;28;20610;-41
2021/04/22 00:13:31;;;;;;;14.38;12.82;;;11.60;99.90;;;;;;5074360;28;20301;-42
2021/04/22 00:16:01;;;;;;;12.43;11.23;;;11.60;99.90;;;;;;5074052;28;20237;-41
2021/04/22 00:18:29;;;;;;;13.68;11.32;;;11.60;99.90;;;;;;5074055;28;20310;-43
2021/04/22 00:20:56;;;;;;;11.52;10.43;;;11.50;99.90;;;;;;5074023;28;20265;-41
2021/04/22 00:23:24;;;;;;;11.73;10.52;;;11.50;99.90;;;;;;5074319;28;20301;-41
2021/04/22 00:25:51;;;;;;;12.35;11.15;;;11.50;99.90;;;;;;5074302;28;20226;-42
2021/04/22 00:28:18;;;;;;;12.30;11.10;;;11.50;99.90;;;;;;5074068;28;20213;-41
2021/04/22 00:30:46;;;;;;;11.55;10.35;;;11.50;99.90;;;;;;5074060;28;20218;-41
2021/04/22 00:33:16;;;;;;;12.23;11.05;;;11.50;99.90;;;;;;5054036;28;20593;-41
2021/04/22 00:35:43;;;;;;;11.73;10.55;;;11.50;99.90;;;;;;5054071;28;20232;-41
2021/04/22 00:38:11;;;;;;;10.77;9.75;;;11.50;99.90;;;;;;5053732;28;20710;-41
2021/04/22 00:40:40;;;;;;;11.13;9.25;;;11.50;99.90;;;;;;5053740;28;20208;-41
2021/04/22 00:43:11;;;;;;;11.45;10.35;;;11.50;99.90;;;;;;5053139;28;20204;-41
2021/04/22 00:45:42;;;;;;;11.82;10.63;;;11.50;99.90;;;;;;5053734;28;20204;-41
2021/04/22 00:48:10;;;;;;;11.45;10.27;;;11.50;99.90;;;;;;5053944;28;20299;-41
2021/04/22 00:50:39;;;;;;;10.95;9.73;;;11.50;99.90;;;;;;5053498;28;20635;-41
2021/04/22 00:53:07;;;;;;;11.82;10.73;;;11.40;99.90;;;;;;5053708;28;20234;-41
2021/04/22 00:55:35;;;;;;;11.77;10.57;;;11.40;99.90;;;;;;5053607;28;20650;-41
2021/04/22 00:58:04;;;;;;;11.80;10.63;;;11.40;99.90;;;;;;5053363;28;20215;-41
2021/04/22 01:00:32;;;;;;;12.50;11.30;;;11.40;99.90;;;;;;5053537;28;20248;-41
2021/04/22 01:03:00;;;;;;;11.93;10.82;;;11.30;99.90;;;;;;5053595;28;20218;-44
2021/04/22 01:05:30;;;;;;;11.50;10.38;;;11.30;99.90;;;;;;5053380;28;20204;-45
2021/04/22 01:07:57;;;;;;;11.52;10.45;;;11.30;99.90;;;;;;5053330;28;20232;-47
2021/04/22 01:10:25;;;;;;;12.40;11.15;;;11.30;99.90;;;;;;5053146;28;20644;-44
2021/04/22 01:12:52;;;;;;;12.32;11.02;;;11.30;99.90;;;;;;5053051;28;20565;-46
2021/04/22 01:15:20;;;;;;;13.55;12.20;;;11.20;99.90;;;;;;5053316;28;20592;-42
2021/04/22 01:17:49;;;;;;;12.20;10.90;;;11.10;99.90;;;;;;5053363;28;20214;-41
2021/04/22 01:20:19;;;;;;;13.25;11.95;;;11.00;99.90;;;;;;5053197;28;20666;-41
2021/04/22 01:22:48;;;;;;;12.50;11.30;;;11.00;99.90;;;;;;5053102;28;20625;-41
2021/04/22 01:25:17;;;;;;;13.95;12.55;;;10.90;99.90;;;;;;5052971;28;20208;-41
2021/04/22 01:27:45;;;;;;;13.77;12.45;;;10.90;99.90;;;;;;5053086;28;20211;-42
2021/04/22 01:30:16;;;;;;;14.77;13.18;;;10.80;99.90;;;;;;5053023;28;20218;-41
2021/04/22 01:32:43;;;;;;;15.20;13.63;;;10.70;99.90;;;;;;5069038;28;20274;-41
2021/04/22 01:35:13;;;;;;;14.35;12.85;;;10.60;99.90;;;;;;5072716;28;20241;-41
2021/04/22 01:37:40;;;;;;;15.25;13.68;;;10.70;99.90;;;;;;5072646;28;20203;-41
2021/04/22 01:40:10;;;;;;;14.32;12.95;;;10.70;99.90;;;;;;5072660;28;20237;-41
2021/04/22 01:42:37;;;;;;;13.40;12.10;;;10.70;99.90;;;;;;5072878;28;20207;-41
2021/04/22 01:45:06;;;;;;;14.15;12.75;;;10.60;99.90;;;;;;5072710;28;20290;-41
2021/04/22 01:47:33;;;;;;;14.32;12.77;;;10.60;99.90;;;;;;5072930;28;20203;-40
2021/04/22 01:50:00;;;;;;;14.63;13.15;;;10.50;99.90;;;;;;5072554;28;20218;-46
2021/04/22 01:52:27;;;;;;;14.73;13.23;;;10.40;99.90;;;;;;5072458;28;20234;-44
2021/04/22 01:54:56;;;;;;;14.65;13.15;;;10.40;99.90;;;;;;5071703;28;20298;-44
2021/04/22 01:57:23;;;;;;;15.05;13.35;;;10.40;99.90;;;;;;5072409;28;20725;-40
2021/04/22 01:59:50;;;;;;;15.45;13.85;;;10.40;99.90;;;;;;5072378;28;20306;-41
2021/04/22 02:02:18;;;;;;;13.82;12.50;;;10.40;99.90;;;;;;5072371;28;20295;-40
2021/04/22 02:04:47;;;;;;;12.98;11.73;;;10.40;99.90;;;;;;5072314;28;20211;-40
2021/04/22 02:07:14;;;;;;;14.77;13.30;;;10.40;99.90;;;;;;5072609;28;20566;-40
2021/04/22 02:09:41;;;;;;;14.65;13.13;;;10.40;99.90;;;;;;5072375;28;20298;-42
2021/04/22 02:12:08;;;;;;;14.27;12.85;;;10.40;99.90;;;;;;5072082;28;20253;-44
2021/04/22 02:14:36;;;;;;;13.90;12.60;;;10.50;99.90;;;;;;5072260;28;20598;-43
2021/04/22 02:17:04;;;;;;;14.30;12.85;;;10.40;99.90;;;;;;5072145;28;20658;-43
2021/04/22 02:19:31;;;;;;;16.88;12.77;;;10.40;99.90;;;;;;5072164;28;20268;-43
2021/04/22 02:21:58;;;;;;;13.70;12.27;;;10.50;99.90;;;;;;5072132;28;20573;-43
2021/04/22 02:24:25;;;;;;;13.88;12.45;;;10.50;99.90;;;;;;5072250;28;20214;-43
2021/04/22 02:26:52;;;;;;;13.88;12.45;;;10.40;99.90;;;;;;5072034;28;20294;-44
2021/04/22 02:29:18;;;;;;;14.75;13.25;;;10.40;99.90;;;;;;5071943;28;20313;-46
2021/04/22 02:31:46;;;;;;;14.27;12.80;;;10.40;99.90;;;;;;5071826;28;20245;-42
2021/04/22 02:34:13;;;;;;;13.52;12.13;;;10.40;99.90;;;;;;5072115;28;20211;-43
2021/04/22 02:36:40;;;;;;;12.65;11.35;;;10.40;99.90;;;;;;5072085;28;20258;-43
2021/04/22 02:39:08;;;;;;;13.05;11.48;;;10.40;99.90;;;;;;5071833;28;20696;-45
2021/04/22 02:41:35;;;;;;;12.93;11.63;;;10.30;99.90;;;;;;5072008;28;20298;-45
2021/04/22 02:44:02;;;;;;;11.52;10.45;;;10.40;99.90;;;;;;5071922;28;20211;-45
2021/04/22 02:46:29;;;;;;;12.32;11.13;;;10.30;99.90;;;;;;5071731;28;20207;-46
2021/04/22 02:48:57;;;;;;;12.05;10.85;;;10.40;99.90;;;;;;5071715;28;20696;-43
2021/04/22 02:51:24;;;;;;;12.48;11.23;;;10.30;99.90;;;;;;5071911;28;20257;-42
2021/04/22 02:53:51;;;;;;;12.68;11.38;;;10.40;99.90;;;;;;5071846;28;20306;-44
2021/04/22 02:56:17;;;;;;;15.55;12.30;;;10.30;99.90;;;;;;5071724;28;20314;-42
2021/04/22 02:58:45;;;;;;;12.48;11.23;;;10.30;99.90;;;;;;5071800;28;20206;-43
2021/04/22 03:01:12;;;;;;;13.38;12.07;;;10.30;99.90;;;;;;5071636;28;20636;-41
2021/04/22 03:03:40;;;;;;;13.88;12.43;;;10.20;99.90;;;;;;5071875;28;20265;-43
2021/04/22 03:06:08;;;;;;;14.32;12.93;;;10.20;99.90;;;;;;5073770;28;20199;-44
2021/04/22 03:08:35;;;;;;;13.73;12.30;;;10.20;99.90;;;;;;5075719;28;20207;-41
2021/04/22 03:11:02;;;;;;;15.55;14.05;;;10.20;99.90;;;;;;5075382;28;20250;-41
2021/04/22 03:13:29;;;;;;;14.93;13.43;;;10.10;99.90;;;;;;5075430;28;20283;-42
2021/04/22 03:15:56;;;;;;;15.63;13.88;;;10.10;99.90;;;;;;5075311;28;20227;-42
2021/04/22 03:18:23;;;;;;;17.05;14.23;;;10.00;99.90;;;;;;5075573;28;20298;-41
2021/04/22 03:20:50;;;;;;;13.77;12.32;;;10.00;99.90;;;;;;5075374;28;20254;-42
2021/04/22 03:23:18;;;;;;;15.15;13.68;;;10.00;99.90;;;;;;5075285;28;20207;-42
2021/04/22 03:25:45;;;;;;;15.52;14.00;;;10.00;99.90;;;;;;5075194;28;20642;-41
2021/04/22 03:28:12;;;;;;;14.75;13.25;;;10.10;99.90;;;;;;5075030;28;20586;-42
2021/04/22 03:30:39;;;;;;;14.10;12.70;;;10.10;99.90;;;;;;5075422;28;20246;-41
2021/04/22 03:33:06;;;;;;;13.60;12.30;;;10.20;99.90;;;;;;5075165;28;20253;-41
2021/04/22 03:35:34;;;;;;;15.15;13.57;;;10.10;99.90;;;;;;5074910;28;20226;-42
2021/04/22 03:38:01;;;;;;;14.05;12.65;;;10.10;99.90;;;;;;5075315;28;20253;-42
2021/04/22 03:40:29;;;;;;;15.30;12.88;;;10.10;99.90;;;;;;5074994;28;20700;-41
2021/04/22 03:42:56;;;;;;;15.50;13.30;;;10.00;99.90;;;;;;5074947;28;20207;-42
2021/04/22 03:45:25;;;;;;;14.48;13.18;;;10.00;99.90;;;;;;5074856;28;20682;-43
2021/04/22 03:47:52;;;;;;;16.33;14.65;;;10.00;99.90;;;;;;5074968;28;20290;-42
2021/04/22 03:50:20;;;;;;;16.40;14.73;;;10.00;99.90;;;;;;5074917;28;20207;-42
2021/04/22 03:52:48;;;;;;;15.75;14.18;;;10.00;99.90;;;;;;5074684;28;20207;-40
2021/04/22 03:55:16;;;;;;;16.83;14.13;;;10.00;99.90;;;;;;5074539;28;20306;-45
2021/04/22 03:57:45;;;;;;;16.13;14.45;;;10.00;99.90;;;;;;5074665;28;20241;-42
2021/04/22 04:00:15;;;;;;;15.70;14.20;;;10.10;99.90;;;;;;5074467;28;20234;-45
2021/04/22 04:02:42;;;;;;;16.40;14.55;;;10.10;99.90;;;;;;5074123;28;20243;-41
2021/04/22 04:05:10;;;;;;;14.77;13.15;;;10.10;99.90;;;;;;5074179;28;20302;-42
2021/04/22 04:07:37;;;;;;;15.13;13.38;;;10.10;99.90;;;;;;5074205;28;20242;-43
2021/04/22 04:10:06;;;;;;;15.07;13.25;;;10.10;99.90;;;;;;5074595;28;20306;-44
2021/04/22 04:12:33;;;;;;;14.57;13.15;;;10.00;99.90;;;;;;5056733;28;20357;-45
2021/04/22 04:15:01;;;;;;;15.13;13.60;;;10.00;99.90;;;;;;5074149;28;20649;-39
2021/04/22 04:17:28;;;;;;;15.27;12.98;;;10.00;99.90;;;;;;5073068;28;20231;-39
2021/04/22 04:19:55;;;;;;;14.65;13.13;;;9.90;99.90;;;;;;5074188;28;20290;-39
2021/04/22 04:22:22;;;;;;;13.77;12.45;;;9.90;99.90;;;;;;5073885;28;20302;-40
2021/04/22 04:24:49;;;;;;;14.77;13.32;;;9.90;99.90;;;;;;5074241;28;20235;-42
2021/04/22 04:27:18;;;;;;;16.23;14.10;;;9.90;99.90;;;;;;5073773;28;20264;-44
2021/04/22 04:29:46;;;;;;;15.63;13.35;;;9.90;99.90;;;;;;5073746;28;20207;-41
2021/04/22 04:32:13;;;;;;;17.25;13.32;;;9.90;99.90;;;;;;5073002;28;20262;-40
2021/04/22 04:34:41;;;;;;;14.02;12.63;;;9.90;99.90;;;;;;5073738;28;20238;-41
2021/04/22 04:37:08;;;;;;;15.85;14.23;;;9.90;99.90;;;;;;5073588;28;20259;-40
2021/04/22 04:39:35;;;;;;;15.32;13.73;;;9.90;99.90;;;;;;5073955;28;20234;-41
2021/04/22 04:42:02;;;;;;;15.48;13.88;;;9.90;99.90;;;;;;5073897;28;20299;-40
2021/04/22 04:44:29;;;;;;;15.68;14.00;;;9.90;99.90;;;;;;5073492;28;20730;-41
2021/04/22 04:46:56;;;;;;;15.05;13.55;;;9.90;99.90;;;;;;5073734;28;20208;-40
2021/04/22 04:49:24;;;;;;;16.50;14.48;;;9.90;99.90;;;;;;5073549;28;20203;-40
2021/04/22 04:51:50;;;;;;;16.25;14.65;;;9.90;99.90;;;;;;5073501;28;20207;-40
2021/04/22 04:54:18;;;;;;;15.27;13.65;;;9.80;99.90;;;;;;5073782;28;20261;-40
2021/04/22 04:56:45;;;;;;;16.35;14.63;;;9.80;99.90;;;;;;5073549;28;20237;-41
2021/04/22 04:59:12;;;;;;;16.05;14.38;;;9.80;99.90;;;;;;5073333;28;20305;-40
2021/04/22 05:01:39;;;;;;;16.95;15.25;;;9.80;99.90;;;;;;5073469;28;20233;-40
2021/04/22 05:04:06;;;;;;;16.95;15.25;;;9.80;99.90;;;;;;5073214;28;20584;-40
2021/04/22 05:06:34;;;;;;;16.27;14.00;;;9.80;99.90;;;;;;5073480;28;20294;-41
2021/04/22 05:09:01;;;;;;;15.85;14.35;;;9.80;99.90;;;;;;5073402;28;20323;-41
2021/04/22 05:11:28;;;;;;;16.73;14.82;;;9.80;99.90;;;;;;5073259;28;20661;-41
2021/04/22 05:13:55;;;;;;;16.98;15.13;;;9.90;99.90;;;;;;5073024;28;20203;-40
2021/04/22 05:16:22;;;;;;;17.38;15.57;;;9.90;99.90;;;;;;5072995;28;20717;-40
2021/04/22 05:18:49;;;;;;;18.20;15.27;;;9.90;99.90;;;;;;5073041;28;20227;-40
2021/04/22 05:21:16;;;;;;;17.23;15.32;;;9.90;99.90;;;;;;5072890;28;20253;-40
2021/04/22 05:23:44;;;;;;;18.67;15.98;;;9.90;99.90;;;;;;5072992;28;20298;-41
2021/04/22 05:26:11;;;;;;;19.20;17.20;;;10.00;99.90;;;;;;5072848;28;20652;-40
2021/04/22 05:28:38;;;;;;;18.42;16.63;;;10.00;99.90;;;;;;5072591;28;20651;-40
2021/04/22 05:31:06;;;;;;;19.15;17.05;;;10.00;99.90;;;;;;5072520;28;20269;-41
2021/04/22 05:33:33;;;;;;;19.30;17.30;;;10.00;99.90;;;;;;5072983;28;20299;-40
2021/04/22 05:36:03;;;;;;;20.05;17.95;;;10.00;99.90;;;;;;5072638;28;20637;-40
2021/04/22 05:38:30;;;;;;;19.13;17.13;;;10.00;99.90;;;;;;5072618;28;20203;-40
2021/04/22 05:40:58;;;;;;;22.83;17.42;;;10.00;99.90;;;;;;5072654;28;20208;-41
2021/04/22 05:43:25;;;;;;;28.63;18.40;;;10.10;99.90;;;;;;5072564;28;20242;-40
2021/04/22 05:45:52;;;;;;;19.17;17.17;;;10.10;99.90;;;;;;5072343;28;20249;-40
2021/04/22 05:48:19;;;;;;;20.70;18.33;;;10.20;99.90;;;;;;5072606;28;20227;-40
2021/04/22 05:50:46;;;;;;;21.70;19.35;;;10.20;99.90;;;;;;5072541;28;20211;-40
2021/04/22 05:53:13;;;;;;;21.77;18.88;;;10.30;99.90;;;;;;5072428;28;20210;-41
2021/04/22 05:55:40;;;;;;;22.25;19.90;;;10.40;99.90;;;;;;5072165;28;20231;-41
2021/04/22 05:58:08;;;;;;;23.50;20.45;;;10.40;99.90;;;;;;5072234;28;20268;-40
2021/04/22 06:00:35;;;;;;;23.45;20.58;;;10.50;99.90;;;;;;5072277;28;20293;-41
2021/04/22 06:03:04;;;;;;;24.15;21.23;;;10.60;99.90;;;;;;5072408;28;20222;-40
2021/04/22 06:05:31;;;;;;;23.38;19.83;;;10.70;99.90;;;;;;5072297;28;20207;-42
2021/04/22 06:07:58;;;;;;;23.08;18.98;;;10.70;99.90;;;;;;5072325;28;20253;-42
2021/04/22 06:10:25;;;;;;;21.63;19.15;;;10.70;99.90;;;;;;5071848;28;20728;-40
2021/04/22 06:12:53;;;;;;;21.58;19.45;;;10.70;99.90;;;;;;5071923;28;20247;-41
2021/04/22 06:15:21;;;;;;;22.70;20.38;;;10.70;99.90;;;;;;5072099;28;20240;-40
2021/04/22 06:17:49;;;;;;;21.85;19.58;;;10.80;99.90;;;;;;5072119;28;20314;-48
2021/04/22 06:20:18;;;;;;;21.77;19.58;;;10.80;99.90;;;;;;5072015;28;20204;-41
2021/04/22 06:22:46;;;;;;;21.52;19.42;;;10.90;99.90;;;;;;5072058;28;20254;-40
2021/04/22 06:25:14;;;;;;;22.90;19.83;;;10.90;99.90;;;;;;5072073;28;20290;-41
2021/04/22 06:27:41;;;;;;;22.27;19.98;;;11.00;99.90;;;;;;5072468;28;20628;-41
2021/04/22 06:30:10;;;;;;;21.65;19.48;;;11.10;99.90;;;;;;5071941;28;20297;-41
2021/04/22 06:32:38;;;;;;;21.75;19.50;;;11.30;99.90;;;;;;5071632;28;20239;-41
2021/04/22 06:35:07;;;;;;;22.20;19.92;;;11.40;99.90;;;;;;5071554;28;20310;-40
2021/04/22 06:37:39;;;;;;;23.75;19.55;;;11.50;99.90;;;;;;5071538;28;20223;-41
2021/04/22 06:40:11;;;;;;;21.48;19.38;;;11.60;99.90;;;;;;5073232;28;20290;-41
2021/04/22 06:42:38;;;;;;;21.13;19.08;;;11.60;99.90;;;;;;5078383;28;20234;-44
2021/04/22 06:45:07;;;;;;;19.75;17.65;;;11.50;99.90;;;;;;5078418;28;20246;-41
2021/04/22 06:47:34;;;;;;;28.45;20.45;;;11.40;99.90;;;;;;5078061;28;20207;-41
2021/04/22 06:50:03;;;;;;;22.25;19.40;;;11.60;99.90;;;;;;5078633;28;20215;-40
2021/04/22 06:52:30;;;;;;;22.27;18.92;;;11.70;99.90;;;;;;5077994;28;20211;-40
2021/04/22 06:54:57;;;;;;;20.92;17.40;;;11.70;99.90;;;;;;5078029;28;20302;-40
2021/04/22 06:57:24;;;;;;;21.48;19.27;;;11.70;99.90;;;;;;5077816;28;20262;-40
2021/04/22 06:59:50;;;;;;;23.63;19.02;;;11.50;99.90;;;;;;5077849;28;20630;-40
2021/04/22 07:02:17;;;;;;;21.98;19.77;;;11.40;99.90;;;;;;5078034;28;20207;-40
2021/04/22 07:04:45;;;;;;;21.08;19.00;;;11.30;99.90;;;;;;5078209;28;20637;-40
2021/04/22 07:07:12;;;;;;;21.45;19.45;;;11.40;99.90;;;;;;5077731;28;20691;-42
2021/04/22 07:09:39;;;;;;;20.10;18.10;;;11.50;99.90;;;;;;5077732;28;20319;-40
2021/04/22 07:12:07;;;;;;;23.15;20.67;;;11.50;99.90;;;;;;5077698;28;20723;-39
2021/04/22 07:14:34;;;;;;;21.00;18.80;;;11.60;99.90;;;;;;5077790;28;20253;-40
2021/04/22 07:17:01;;;;;;;21.05;18.83;;;11.70;99.90;;;;;;5077629;28;20388;-40
2021/04/22 07:19:29;;;;;;;20.75;18.63;;;11.80;99.90;;;;;;5077669;28;20211;-40
2021/04/22 07:21:56;;;;;;;22.33;19.30;;;11.90;99.90;;;;;;5077913;28;20231;-40
2021/04/22 07:24:23;;;;;;;24.83;22.15;;;12.00;99.90;;;;;;5077719;28;20238;-40
2021/04/22 07:26:50;;;;;;;21.85;19.55;;;12.20;99.90;;;;;;5078114;28;20211;-40
2021/04/22 07:29:17;;;;;;;19.80;17.80;;;12.20;99.60;;;;;;5078101;28;20575;-40
2021/04/22 07:31:46;;;;;;;21.33;19.15;;;12.10;99.60;;;;;;5077699;28;20271;-40
2021/04/22 07:34:13;;;;;;;21.67;19.50;;;12.10;99.70;;;;;;5077902;28;20247;-41
2021/04/22 07:36:41;;;;;;;21.02;18.83;;;12.20;99.60;;;;;;5077679;28;20658;-40
2021/04/22 07:39:08;;;;;;;21.50;19.20;;;12.10;99.70;;;;;;5078134;28;20218;-40
2021/04/22 07:41:35;;;;;;;22.17;19.85;;;12.20;99.60;;;;;;5077811;28;20684;-40
2021/04/22 07:44:03;;;;;;;22.70;20.30;;;12.40;99.30;;;;;;5077747;28;20697;-40
2021/04/22 07:46:30;;;;;;;21.60;19.02;;;12.60;99.00;;;;;;5077788;28;20674;-41
2021/04/22 07:48:57;;;;;;;21.48;19.45;;;12.70;98.80;;;;;;5077901;28;20377;-40
2021/04/22 07:51:24;;;;;;;21.20;19.10;;;12.70;98.60;;;;;;5076779;28;20242;-42
2021/04/22 07:53:52;;;;;;;21.23;19.13;;;12.70;98.60;;;;;;5074622;28;20286;-41
2021/04/22 07:56:19;;;;;;;20.65;18.55;;;12.60;98.60;;;;;;5074333;28;20223;-41
2021/04/22 07:58:47;;;;;;;32.40;29.30;;;12.60;98.60;;;;;;5074080;28;20251;-41
2021/04/22 08:01:15;;;;;;;20.75;18.80;;;12.70;98.60;;;;;;5074277;28;20302;-41
2021/04/22 08:03:42;;;;;;;22.00;19.80;;;12.80;98.50;;;;;;5074443;28;20295;-41
2021/04/22 08:06:10;;;;;;;22.05;19.75;;;13.00;98.20;;;;;;5074231;28;20316;-41
2021/04/22 08:08:37;;;;;;;22.85;18.52;;;13.10;98.10;;;;;;5074189;28;20290;-40
2021/04/22 08:11:04;;;;;;;21.92;19.65;;;13.20;97.80;;;;;;5074004;28;20669;-41
2021/04/22 08:13:31;;;;;;;20.95;18.95;;;13.30;97.70;;;;;;5073972;28;20203;-41
2021/04/22 08:15:59;;;;;;;20.27;18.45;;;13.50;97.50;;;;;;5073844;28;20298;-40
2021/04/22 08:18:31;;;;;;;22.42;20.05;;;13.70;97.10;;;;;;5074090;28;20207;-41
2021/04/22 08:20:59;;;;;;;21.17;19.02;;;13.80;96.80;;;;;;5073938;28;20239;-41
2021/04/22 08:23:31;;;;;;;21.10;19.15;;;13.90;96.60;;;;;;5073760;28;20211;-41
2021/04/22 08:26:01;;;;;;;20.65;18.65;;;14.00;96.30;;;;;;5073703;28;20309;-41
2021/04/22 08:28:30;;;;;;;20.55;18.40;;;14.10;96.00;;;;;;5073824;28;20204;-40
2021/04/22 08:31:00;;;;;;;21.83;19.67;;;14.20;95.70;;;;;;5073870;28;20335;-41
2021/04/22 08:33:34;;;;;;;20.90;18.80;;;14.40;95.60;;;;;;5073700;28;20211;-41
2021/04/22 08:36:02;;;;;;;20.75;18.65;;;14.40;95.40;;;;;;5073529;28;20737;-41
2021/04/22 08:38:35;;;;;;;21.70;19.63;;;14.40;95.20;;;;;;5073751;28;20208;-41
2021/04/22 08:41:04;;;;;;;21.63;19.63;;;14.50;95.10;;;;;;5073831;28;20324;-41
2021/04/22 08:43:35;;;;;;;21.55;19.42;;;14.70;94.70;;;;;;5073882;28;20336;-41
2021/04/22 08:46:03;;;;;;;22.02;19.42;;;14.90;94.20;;;;;;5073613;28;20213;-40
2021/04/22 08:48:30;;;;;;;21.63;19.38;;;14.90;94.00;;;;;;5073292;28;20572;-41
2021/04/22 08:50:57;;;;;;;22.83;20.73;;;14.70;93.90;;;;;;5073459;28;20230;-41
2021/04/22 08:53:29;;;;;;;20.98;18.98;;;14.60;94.00;;;;;;5073236;28;20243;-41
2021/04/22 08:55:56;;;;;;;21.48;19.45;;;14.50;94.00;;;;;;5073434;28;20341;-41
2021/04/22 08:58:23;;;;;;;22.90;20.50;;;14.50;94.00;;;;;;5073235;28;20543;-42
2021/04/22 09:00:55;;;;;;;24.02;19.70;;;14.40;94.00;;;;;;5073227;28;20294;-41
2021/04/22 09:03:23;;;;;;;26.00;21.25;;;14.30;94.10;;;;;;5072658;28;20302;-41
2021/04/22 09:05:51;;;;;;;23.30;21.00;;;14.20;94.00;;;;;;5073028;28;20576;-41
2021/04/22 09:08:20;;;;;;;21.95;19.75;;;14.20;94.20;;;;;;5073332;28;20214;-41
2021/04/22 09:10:47;;;;;;;22.40;20.15;;;14.20;94.10;;;;;;5073012;28;20211;-41
2021/04/22 09:13:16;;;;;;;24.80;22.25;;;14.20;94.10;;;;;;5073021;28;20258;-45
2021/04/22 09:15:48;;;;;;;23.20;20.80;;;14.20;94.00;;;;;;5072911;28;20298;-44
2021/04/22 09:18:25;;;;;;;23.40;20.98;;;14.20;93.90;;;;;;5072871;28;20308;-41
2021/04/22 09:20:54;;;;;;;25.20;22.50;;;14.10;94.10;;;;;;5072868;28;20651;-41
2021/04/22 09:23:23;;;;;;;26.85;23.95;;;14.20;94.30;;;;;;5072863;28;20223;-41
2021/04/22 09:25:55;;;;;;;25.63;23.02;;;14.40;93.70;;;;;;5072955;28;20242;-42
2021/04/22 09:28:32;;;;;;;27.17;24.27;;;14.60;93.40;;;;;;5072845;28;20302;-41
2021/04/22 09:30:59;;;;;;;26.40;21.88;;;14.70;93.20;;;;;;5072782;28;20573;-41
2021/04/22 09:33:30;;;;;;;25.00;22.50;;;14.60;92.90;;;;;;5072752;28;20253;-42
2021/04/22 09:36:07;;;;;;;22.40;20.10;;;14.50;93.00;;;;;;5072668;28;20211;-41
2021/04/22 09:38:34;;;;;;;25.38;22.98;;;14.40;93.40;;;;;;5072456;28;20302;-41
2021/04/22 09:41:10;;;;;;;25.23;22.50;;;14.30;93.30;;;;;;5072387;28;20649;-41
2021/04/22 09:43:37;;;;;;;25.63;22.30;;;14.10;93.40;;;;;;5072565;28;20276;-42
2021/04/22 09:46:05;;;;;;;25.23;22.52;;;13.90;93.70;;;;;;5072128;28;20216;-41
2021/04/22 09:48:33;;;;;;;23.63;21.23;;;13.80;93.90;;;;;;5072195;28;20269;-41
2021/04/22 09:51:03;;;;;;;23.85;21.63;;;13.90;93.90;;;;;;5072597;28;20250;-41
2021/04/22 09:53:32;;;;;;;22.65;20.40;;;14.10;93.70;;;;;;5072193;28;20640;-41
2021/04/22 09:56:09;;;;;;;22.92;20.70;;;14.50;93.20;;;;;;5071969;28;20243;-42
2021/04/22 09:58:36;;;;;;;22.50;20.40;;;14.70;92.50;;;;;;5072020;28;20676;-41
2021/04/22 10:01:06;;;;;;;22.48;20.17;;;14.70;92.40;;;;;;5072132;28;20572;-42
2021/04/22 10:03:34;;;;;;;22.00;19.45;;;14.80;92.30;;;;;;5072081;28;20710;-42
2021/04/22 10:06:04;;;;;;;21.42;19.40;;;14.90;92.20;;;;;;5071842;28;20246;-42
2021/04/22 10:08:31;;;;;;;21.13;18.95;;;14.90;92.00;;;;;;5071982;28;20576;-40
2021/04/22 10:11:01;;;;;;;21.95;19.77;;;14.90;92.00;;;;;;5072162;28;20306;-41
2021/04/22 10:13:28;;;;;;;21.23;19.00;;;15.00;91.70;;;;;;5071998;28;20250;-41
2021/04/22 10:15:57;;;;;;;20.77;18.70;;;15.10;91.70;;;;;;5071095;28;20294;-41
2021/04/22 10:18:35;;;;;;;20.38;18.48;;;15.30;91.20;;;;;;5071766;28;20588;-41
2021/04/22 10:21:03;;;;;;;20.98;18.80;;;15.30;90.90;;;;;;5072056;28;20687;-41
2021/04/22 10:23:30;;;;;;;21.77;19.58;;;15.30;91.30;;;;;;5071662;28;20288;-41
2021/04/22 10:25:58;;;;;;;22.23;20.00;;;15.20;91.10;;;;;;5071967;28;20234;-41
2021/04/22 10:28:25;;;;;;;21.90;19.75;;;15.40;90.90;;;;;;5071783;28;20352;-45
2021/04/22 10:30:55;;;;;;;22.85;20.77;;;15.50;90.60;;;;;;5071630;28;20207;-41
2021/04/22 10:33:23;;;;;;;23.20;20.88;;;15.50;90.60;;;;;;5071663;28;20215;-41
2021/04/22 10:35:51;;;;;;;22.63;20.40;;;15.40;90.50;;;;;;5071697;28;20216;-41
2021/04/22 10:38:20;;;;;;;20.98;18.85;;;15.40;90.50;;;;;;5071844;28;20233;-41
2021/04/22 10:40:49;;;;;;;22.98;20.48;;;15.60;90.40;;;;;;5071704;28;20235;-41
2021/04/22 10:43:17;;;;;;;24.25;21.48;;;15.60;90.10;;;;;;5071725;28;20291;-41
2021/04/22 10:45:45;;;;;;;21.80;19.55;;;15.60;90.00;;;;;;5071711;28;20245;-41
2021/04/22 10:48:12;;;;;;;22.30;20.15;;;15.70;89.70;;;;;;5071736;28;20203;-41
2021/04/22 10:50:41;;;;;;;23.00;20.65;;;15.80;89.50;;;;;;5071858;28;20298;-41
2021/04/22 10:53:11;;;;;;;20.73;18.83;;;16.00;88.70;;;;;;5071823;28;20212;-41
2021/04/22 10:55:40;;;;;;;23.38;21.17;;;16.00;88.50;;;;;;5053843;28;20573;-40
2021/04/22 10:58:15;;;;;;;22.52;20.17;;;16.00;88.40;;;;;;5071673;28;20273;-41
2021/04/22 11:00:47;;;;;;;25.38;22.90;;;16.00;88.50;;;;;;5071939;28;20242;-41
2021/04/22 11:03:25;;;;;;;21.98;19.90;;;16.10;87.90;;;;;;5071660;28;20213;-41
2021/04/22 11:06:00;;;;;;;22.92;20.58;;;16.20;87.20;;;;;;5071608;28;20306;-41
2021/04/22 11:08:36;;;;;;;46.33;35.70;;;16.40;86.30;;;;;;5071713;28;20214;-43
2021/04/22 11:11:15;;;;;;;28.17;25.38;;;16.40;86.00;;;;;;5071750;28;20274;-41
2021/04/22 11:13:44;;;;;;;28.02;25.23;;;16.30;85.70;;;;;;5071239;28;20298;-41
2021/04/22 11:16:11;;;;;;;23.92;21.63;;;16.20;85.60;;;;;;5071444;28;20306;-41
2021/04/22 11:18:41;;;;;;;23.63;21.23;;;15.90;85.90;;;;;;5071446;28;20207;-41
2021/04/22 11:21:24;;;;;;;23.77;20.98;;;15.70;86.30;;;;;;5071435;28;20310;-41
2021/04/22 11:23:54;;;;;;;25.65;22.92;;;15.60;85.70;;;;;;5071561;28;20239;-41
2021/04/22 11:26:24;;;;;;;22.20;20.08;;;15.40;86.40;;;;;;5071850;28;20618;-41
2021/04/22 11:28:52;;;;;;;23.33;20.90;;;15.30;87.00;;;;;;5075288;28;20276;-41
2021/04/22 11:31:21;;;;;;;25.27;22.67;;;15.30;87.10;;;;;;5075019;28;20285;-41
2021/04/22 11:33:51;;;;;;;22.30;20.00;;;15.30;87.20;;;;;;5074980;28;20513;-41
2021/04/22 11:36:22;;;;;;;23.20;20.80;;;15.30;87.30;;;;;;5075130;28;20580;-41
2021/04/22 11:38:52;;;;;;;23.65;20.95;;;15.30;87.40;;;;;;5074844;28;20742;-42
2021/04/22 11:41:19;;;;;;;23.60;21.10;;;15.20;86.70;;;;;;5074993;28;20246;-42
2021/04/22 11:43:47;;;;;;;25.10;22.75;;;15.20;86.80;;;;;;5074573;28;20242;-41
2021/04/22 11:46:15;;;;;;;24.92;22.52;;;15.20;86.40;;;;;;5074555;28;20214;-41
2021/04/22 11:48:43;;;;;;;24.13;21.65;;;15.20;86.30;;;;;;5074835;28;20334;-41
2021/04/22 11:51:11;;;;;;;23.10;20.20;;;15.30;86.30;;;;;;5074941;28;20207;-41
2021/04/22 11:53:41;;;;;;;21.45;19.33;;;15.50;85.80;;;;;;5074628;28;20211;-42
2021/04/22 11:56:13;;;;;;;21.35;19.10;;;15.70;85.50;;;;;;5074693;28;20217;-42
2021/04/22 11:58:41;;;;;;;20.92;18.92;;;15.90;85.00;;;;;;5074125;28;20697;-42
2021/04/22 12:01:10;;;;;;;21.40;19.10;;;16.20;84.30;;;;;;5074600;28;20231;-42
2021/04/22 12:03:39;;;;;;;20.13;17.65;;;16.30;83.30;;;;;;5074517;28;20302;-43
2021/04/22 12:06:08;;;;;;;20.20;18.05;;;16.20;83.10;;;;;;5074432;28;20204;-42
2021/04/22 12:08:37;;;;;;;21.92;19.65;;;15.90;83.90;;;;;;5074386;28;20601;-42
2021/04/22 12:11:07;;;;;;;22.77;20.50;;;15.60;83.40;;;;;;5074186;28;20213;-42
2021/04/22 12:13:35;;;;;;;21.73;19.70;;;15.40;84.00;;;;;;5074329;28;20631;-42
2021/04/22 12:16:05;;;;;;;23.45;20.98;;;15.20;84.10;;;;;;5074471;28;20261;-42
2021/04/22 12:18:35;;;;;;;22.27;20.08;;;15.40;84.30;;;;;;5074303;28;20322;-42
2021/04/22 12:21:09;;;;;;;21.05;18.23;;;15.60;83.40;;;;;;5074184;28;20231;-42
2021/04/22 12:23:39;;;;;;;20.50;18.42;;;15.90;82.80;;;;;;5074006;28;20285;-42
2021/04/22 12:26:18;;;;;;;22.25;19.98;;;15.90;81.40;;;;;;5074122;28;20215;-42
2021/04/22 12:28:52;;;;;;;19.10;17.08;;;15.70;80.80;;;;;;5073645;28;20765;-42
2021/04/22 12:31:25;;;;;;;19.58;17.48;;;15.60;80.10;;;;;;5073586;28;20304;-42
2021/04/22 12:33:54;;;;;;;17.38;15.65;;;15.60;80.80;;;;;;5073713;28;20762;-43